Latest Weather Observations for Southern Cross Airport

IDW60801

Issued at 6:33 pm WST Wednesday 7 December 2016 (issued every 30 minutes, with the page automatically refreshed every 10 minutes)

About weather observations | Map of weather stations | Latest weather observations for WA | Other Formats
Station Details ID: 012320 Name: SOUTHERN CROSS AIRFIELD Lat: -31.24 Lon: 119.36 Height: 347.4 m
Data from the previous 72 hours. | See also: Recent months at Southern Cross Airport
Date/Time
WST
Temp
°C
App
Temp
°C
Dew
Point
°C
Rel
Hum
%
Delta-T
°C
Wind Press
QNH
hPa
Press
MSL
hPa
Rain since
9am
mm
Dir  Spd
km/h
Gust
km/h
Spd
kts
Gust
kts
07/06:30pm 25.2 17.9 0.0 19 11.8 S 28 35 15 19 1015.3 1013.5 0.0
07/06:00pm 25.9 19.4 0.5 19 12.1 S 24 33 13 18 1014.8 1013.0 0.0
07/05:30pm 26.7 19.1 0.4 18 12.6 S 30 37 16 20 1014.4 1012.7 0.0
07/05:00pm 27.5 20.6 0.3 17 13.0 S 26 41 14 22 1014.1 1012.4 0.0
07/04:30pm 27.4 19.7 2.5 20 12.4 SSW 32 43 17 23 1013.7 1011.9 0.0
07/04:03pm 27.5 20.5 3.9 22 12.1 SSW 30 48 16 26 1013.6 1011.8 0.0
07/04:00pm 27.2 19.9 4.3 23 11.8 S 32 48 17 26 1013.5 1011.7 0.0
07/03:54pm 28.0 20.9 3.7 21 12.4 SSW 30 48 16 26 1013.4 1011.6 0.0
07/03:30pm 27.4 20.3 3.8 22 12.0 SSW 30 44 16 24 1013.5 1011.7 0.0
07/03:03pm 28.4 21.5 4.6 22 12.4 S 30 56 16 30 1013.4 1011.6 0.0
07/03:00pm 27.6 21.2 5.2 24 11.7 S 28 43 15 23 1013.5 1011.7 0.0
07/02:30pm 27.5 20.8 3.9 22 12.1 SSW 28 43 15 23 1013.5 1011.7 0.0
07/02:00pm 28.1 21.7 5.0 23 12.1 SW 28 41 15 22 1013.5 1011.7 0.0
07/01:40pm 27.8 21.3 4.8 23 12.0 SW 28 46 15 25 1013.5 1011.7 0.0
07/01:30pm 26.7 19.4 5.6 26 11.1 SW 33 46 18 25 1013.7 1011.9 0.0
07/01:22pm 27.8 21.4 5.4 24 11.8 SSW 28 52 15 28 1013.5 1011.7 0.0
07/01:00pm 26.7 19.6 5.6 26 11.1 SW 32 46 17 25 1013.6 1011.8 0.0
07/12:36pm 26.6 20.4 6.1 27 10.8 SSW 28 50 15 27 1013.7 1011.9 0.0
07/12:30pm 26.8 21.4 6.2 27 10.9 SSW 24 50 13 27 1013.8 1012.1 0.0
07/12:00pm 26.0 19.6 5.0 26 10.8 SSW 28 46 15 25 1014.2 1012.5 0.0
07/11:57am 26.0 19.9 6.6 29 10.3 SSW 28 46 15 25 1014.1 1012.4 0.0
07/11:30am 24.6 17.9 7.3 33 9.2 SW 32 39 17 21 1014.3 1012.6 0.0
07/11:01am 23.7 17.0 7.3 35 8.7 S 32 50 17 27 1014.3 1012.6 0.0
07/11:00am 23.8 17.4 7.0 34 8.9 SSW 30 46 16 25 1014.3 1012.6 0.0
07/10:42am 23.5 17.5 7.2 35 8.6 SSW 28 46 15 25 1014.8 1013.0 0.0
07/10:30am 22.8 16.0 7.0 36 8.3 SSW 32 44 17 24 1014.9 1013.1 0.0
07/10:16am 23.5 17.7 8.0 37 8.3 SSW 28 46 15 25 1014.8 1013.0 0.0
07/10:00am 22.9 16.8 8.2 39 7.9 SSW 30 43 16 23 1014.9 1013.1 0.0
07/09:30am 21.2 14.5 7.4 41 7.2 SW 32 43 17 23 1014.8 1013.0 0.0
07/09:00am 20.5 14.7 7.8 44 6.7 SSW 28 37 15 20 1014.7 1012.9 0.0
07/08:30am 19.5 12.9 7.9 47 6.1 SSW 32 41 17 22 1014.5 1012.8 0.0
07/08:00am 18.8 12.2 8.5 51 5.4 SSW 33 39 18 21 1014.3 1012.6 0.0
07/07:30am 18.1 11.9 9.5 57 4.6 SSW 32 41 17 22 1014.3 1012.6 0.0
07/07:00am 17.1 11.1 10.0 63 3.8 SSW 32 39 17 21 1014.3 1012.6 0.0
07/06:30am 16.3 11.0 9.9 66 3.4 SSW 28 43 15 23 1013.9 1012.2 0.0
07/06:00am 15.6 11.1 9.9 69 3.0 SW 24 32 13 17 1013.4 1011.6 0.0
07/05:30am 15.0 11.6 9.1 68 3.1 SW 17 24 9 13 1013.0 1011.2 0.0
07/05:00am 15.0 11.1 8.5 65 3.3 SSW 19 26 10 14 1012.5 1010.7 0.0
07/04:30am 15.1 11.2 6.9 58 4.1 SW 17 22 9 12 1012.4 1010.6 0.0
07/04:00am 15.8 11.3 6.3 53 4.7 SW 19 24 10 13 1012.0 1010.2 0.0
07/03:30am 16.2 12.0 5.5 49 5.2 SW 17 22 9 12 1011.9 1010.1 0.0
07/03:00am 16.9 11.6 5.2 46 5.7 SW 22 26 12 14 1011.6 1009.8 0.0
07/02:30am 17.5 11.9 5.4 45 6.0 SW 24 32 13 17 1011.3 1009.6 0.0
07/02:00am 18.3 12.3 5.5 43 6.4 SW 26 30 14 16 1011.3 1009.6 0.0
07/01:30am 19.0 13.4 5.5 41 6.7 SW 24 33 13 18 1011.3 1009.6 0.0
07/01:00am 19.7 14.1 5.4 39 7.1 SW 24 32 13 17 1011.2 1009.5 0.0
07/12:30am 20.5 14.0 4.9 36 7.8 SW 28 39 15 21 1011.1 1009.3 0.0
07/12:00am 21.0 14.9 4.6 34 8.1 SW 26 32 14 17 1011.0 1009.2 0.0
 
Date/Time
WST
Temp
°C
App
Temp
°C
Dew
Point
°C
Rel
Hum
%
Delta-T
°C
Wind Press
QNH
hPa
Press
MSL
hPa
Rain since
9am
mm
Dir  Spd
km/h
Gust
km/h
Spd
kts
Gust
kts
06/11:30pm 21.3 15.1 2.1 28 9.1 WSW 24 30 13 16 1011.2 1009.5 0.0
06/11:00pm 20.5 16.0 -0.2 25 9.3 SW 13 17 7 9 1011.1 1009.3 0.0
06/10:30pm 21.8 17.4 0.4 24 9.8 SW 13 17 7 9 1011.1 1009.3 0.0
06/10:00pm 23.1 19.1 0.2 22 10.6 SSW 11 13 6 7 1011.1 1009.3 0.0
06/09:30pm 23.8 18.9 -0.5 20 11.2 SW 15 19 8 10 1011.2 1009.5 0.0
06/09:00pm 21.9 17.2 -2.0 20 10.5 SW 13 15 7 8 1011.3 1009.6 0.0
06/08:30pm 22.9 18.0 -3.4 17 11.4 SW 13 15 7 8 1011.2 1009.5 0.0
06/08:00pm 24.1 19.6 -3.3 16 12.0 SW 11 13 6 7 1011.0 1009.2 0.0
06/07:30pm 25.5 20.6 -3.0 15 12.7 WSW 13 15 7 8 1010.9 1009.1 0.0
06/07:00pm 27.5 22.2 -3.3 13 13.9 WSW 15 19 8 10 1010.7 1008.9 0.0
06/06:30pm 29.7 24.1 -2.7 12 15.0 WSW 17 22 9 12 1010.6 1008.8 0.0
06/06:00pm 30.7 24.9 -4.4 10 15.9 W 17 22 9 12 1010.3 1008.5 0.0
06/05:30pm 31.1 25.7 -4.1 10 16.1 WSW 15 20 8 11 1010.2 1008.4 0.0
06/05:00pm 31.6 26.3 -3.7 10 16.3 W 15 28 8 15 1010.2 1008.4 0.0
06/04:30pm 31.4 25.7 -3.8 10 16.2 WSW 17 30 9 16 1010.2 1008.4 0.0
06/04:00pm 32.1 25.7 -4.7 9 16.8 W 20 32 11 17 1010.3 1008.5 0.0
06/03:30pm 31.2 24.8 -5.4 9 16.3 W 20 28 11 15 1010.7 1008.9 0.0
06/03:00pm 31.8 25.4 -4.9 9 16.6 W 20 32 11 17 1010.9 1009.1 0.0
06/02:30pm 32.4 26.2 -3.1 10 16.6 WSW 20 32 11 17 1011.3 1009.6 0.0
06/02:00pm 32.0 26.3 -3.4 10 16.5 W 17 32 9 17 1011.6 1009.8 0.0
06/01:30pm 31.2 26.2 -1.5 12 15.6 WSW 15 30 8 16 1012.1 1010.3 0.0
06/01:00pm 30.0 24.6 -1.4 13 14.9 WNW 17 28 9 15 1012.3 1010.5 0.0
06/12:30pm 29.4 23.7 -0.9 14 14.4 WNW 19 28 10 15 1012.8 1011.0 0.0
06/12:00pm 28.8 24.9 -1.3 14 14.2 SSW 9 19 5 10 1013.4 1011.6 0.0
06/11:30am 29.3 26.0 -0.9 14 14.4 ENE 6 15 3 8 1013.8 1012.1 0.0
06/11:00am 28.0 25.0 2.2 19 12.8 N 7 11 4 6 1014.2 1012.5 0.0
06/10:30am 26.2 23.6 6.3 28 10.5 NNW 9 15 5 8 1014.8 1013.0 0.0
06/10:00am 25.2 23.2 6.9 31 9.7 NW 7 13 4 7 1015.1 1013.3 0.0
06/09:30am 24.5 22.7 7.2 33 9.2 SSE 6 11 3 6 1015.5 1013.7 0.0
06/09:00am 22.7 20.7 6.9 36 8.3 NE 7 15 4 8 1015.7 1013.9 0.0
06/08:30am 21.9 19.5 7.0 38 7.8 E 9 15 5 8 1016.1 1014.3 0.0
06/08:00am 20.3 16.8 7.0 42 6.9 E 15 20 8 11 1016.1 1014.3 0.0
06/07:30am 19.1 16.0 7.2 46 6.1 E 13 20 7 11 1016.3 1014.5 0.0
06/07:00am 17.9 14.0 7.3 50 5.4 ESE 17 22 9 12 1016.3 1014.5 0.0
06/06:30am 15.9 12.0 6.9 55 4.5 ESE 17 22 9 12 1016.1 1014.3 0.0
06/06:00am 14.5 10.5 6.6 59 3.9 SE 17 22 9 12 1016.1 1014.3 0.0
06/05:30am 13.8 10.1 6.4 61 3.6 SE 15 22 8 12 1015.9 1014.1 0.0
06/05:00am 13.6 9.9 6.5 62 3.5 SSE 15 19 8 10 1015.7 1013.9 0.0
06/04:30am 13.7 9.7 6.6 62 3.5 SSE 17 20 9 11 1015.6 1013.8 0.0
06/04:00am 14.1 9.7 6.5 60 3.7 SE 19 24 10 13 1015.5 1013.7 0.0
06/03:30am 14.4 10.7 6.5 59 3.9 SE 15 20 8 11 1015.2 1013.4 0.0
06/03:00am 14.8 10.8 6.6 58 4.1 SSE 17 22 9 12 1014.9 1013.1 0.0
06/02:30am 15.3 11.3 6.8 57 4.2 SE 17 22 9 12 1014.8 1013.0 0.0
06/02:00am 15.8 10.9 6.8 55 4.5 SE 22 30 12 16 1014.5 1012.8 0.0
06/01:30am 16.0 11.6 6.7 54 4.6 SE 19 24 10 13 1014.3 1012.6 0.0
06/01:00am 16.6 12.0 6.7 52 5.0 SE 20 28 11 15 1014.5 1012.8 0.0
06/12:30am 17.4 12.4 6.6 49 5.4 SE 22 30 12 16 1014.4 1012.7 0.0
06/12:00am 18.3 12.6 6.5 46 6.0 SE 26 33 14 18 1014.3 1012.6 0.0
 
Date/Time
WST
Temp
°C
App
Temp
°C
Dew
Point
°C
Rel
Hum
%
Delta-T
°C
Wind Press
QNH
hPa
Press
MSL
hPa
Rain since
9am
mm
Dir  Spd
km/h
Gust
km/h
Spd
kts
Gust
kts
05/11:30pm 19.2 12.4 6.7 44 6.4 SE 32 39 17 21 1014.4 1012.7 0.0
05/11:00pm 20.3 14.9 6.3 40 7.1 SE 24 32 13 17 1014.1 1012.4 0.0
05/10:30pm 20.5 14.5 -1.3 23 9.6 S 20 26 11 14 1014.1 1012.4 0.0
05/10:00pm 20.9 15.1 -1.6 22 9.9 S 19 24 10 13 1014.0 1012.3 0.0
05/09:30pm 21.7 15.5 -2.9 19 10.6 S 20 26 11 14 1013.9 1012.2 0.0
05/09:00pm 22.0 16.3 -3.4 18 10.9 S 17 22 9 12 1013.5 1011.7 0.0
05/08:30pm 23.2 17.2 -3.2 17 11.5 SSW 19 22 10 12 1013.0 1011.2 0.0
05/08:00pm 23.9 18.1 -4.3 15 12.1 S 17 20 9 11 1012.5 1010.7 0.0
05/07:30pm 24.8 19.0 -4.5 14 12.6 SSW 17 20 9 11 1012.0 1010.2 0.0
05/07:00pm 25.6 19.7 -5.9 12 13.3 SSW 17 24 9 13 1011.6 1009.8 0.0
05/06:30pm 27.3 20.6 -8.3 9 14.6 SSW 20 26 11 14 1011.1 1009.3 0.0
05/06:00pm 28.3 21.5 -9.1 8 15.3 SSW 20 26 11 14 1010.7 1008.9 0.0
05/05:30pm 29.2 22.1 -8.4 8 15.7 SW 22 32 12 17 1010.3 1008.5 0.0
05/05:00pm 29.2 22.1 -8.4 8 15.7 SW 22 33 12 18 1010.0 1008.2 0.0
05/04:30pm 29.1 22.0 -8.5 8 15.6 SSW 22 33 12 18 1009.9 1008.1 0.0
05/04:00pm 29.7 23.5 -5.1 10 15.5 SW 19 33 10 18 1010.0 1008.2 0.0
05/03:30pm 29.3 23.3 -3.0 12 14.8 SSW 19 26 10 14 1010.0 1008.2 0.0
05/03:00pm 29.0 23.2 -1.2 14 14.3 S 19 28 10 15 1010.0 1008.2 0.0
05/02:30pm 28.6 22.6 -1.5 14 14.1 SW 20 37 11 20 1010.2 1008.4 0.0
05/02:00pm 28.6 23.2 -1.5 14 14.1 SSW 17 28 9 15 1010.2 1008.4 0.0
05/01:30pm 27.7 22.8 2.0 19 12.7 SW 17 30 9 16 1010.4 1008.6 0.0
05/01:00pm 28.3 24.5 3.9 21 12.5 SW 13 32 7 17 1010.6 1008.8 0.0
05/12:30pm 27.3 22.8 4.4 23 11.8 SSW 17 32 9 17 1010.9 1009.1 0.0
05/12:00pm 26.9 22.6 5.2 25 11.3 S 17 24 9 13 1011.2 1009.5 0.0
05/11:30am 25.6 21.1 6.3 29 10.2 S 19 26 10 14 1011.6 1009.8 0.0
05/11:00am 24.8 21.6 7.0 32 9.5 SSW 13 22 7 12 1011.9 1010.1 0.0
05/10:30am 23.4 21.4 7.1 35 8.6 SE 7 13 4 7 1012.2 1010.4 0.0
05/10:00am 22.1 19.8 7.5 39 7.7 SW 9 15 5 8 1012.4 1010.6 0.0
05/09:30am 21.1 18.5 7.7 42 7.1 SE 11 19 6 10 1012.2 1010.4 0.0
05/09:00am 20.7 17.6 7.3 42 7.0 ESE 13 24 7 13 1012.4 1010.6 0.0
05/08:30am 18.9 15.4 7.0 46 6.1 E 15 26 8 14 1012.8 1011.0 0.0
05/08:00am 18.1 14.2 6.9 48 5.7 E 17 24 9 13 1013.1 1011.3 0.0
05/07:30am 17.3 13.4 7.1 51 5.2 ESE 17 26 9 14 1013.3 1011.5 0.0
05/07:00am 15.8 11.2 6.3 53 4.7 SE 20 26 11 14 1013.5 1011.7 0.0
05/06:30am 14.8 10.1 5.9 55 4.3 SE 20 26 11 14 1013.3 1011.5 0.0
05/06:00am 13.2 8.9 5.4 59 3.7 SSE 17 22 9 12 1013.1 1011.3 0.0
05/05:30am 13.3 9.0 5.2 58 3.8 SE 17 20 9 11 1012.5 1010.7 0.0
05/05:00am 13.0 8.6 4.9 58 3.8 SSE 17 22 9 12 1012.4 1010.6 0.0
05/04:30am 13.2 9.2 4.9 57 3.9 SSE 15 20 8 11 1012.1 1010.3 0.0
05/04:00am 13.6 9.6 4.7 55 4.2 SSE 15 20 8 11 1011.7 1009.9 0.0
05/03:30am 13.9 9.9 4.8 54 4.3 SE 15 19 8 10 1011.7 1009.9 0.0
05/03:00am 14.5 10.1 4.8 52 4.6 SE 17 22 9 12 1011.9 1010.1 0.0
05/02:30am 15.2 10.4 4.9 50 4.9 SE 19 24 10 13 1011.9 1010.1 0.0
05/02:00am 15.6 10.5 4.3 47 5.4 SE 20 28 11 15 1011.7 1009.9 0.0
05/01:30am 16.2 10.0 4.3 45 5.7 SE 26 32 14 17 1011.6 1009.8 0.0
05/01:00am 16.9 10.3 4.3 43 6.0 SE 28 35 15 19 1011.4 1009.7 0.0
05/12:30am 17.3 11.0 3.9 41 6.4 SSE 26 33 14 18 1011.3 1009.6 0.0
05/12:00am 18.4 12.7 3.1 36 7.2 SE 22 30 12 16 1011.0 1009.2 0.0
 
Date/Time
WST
Temp
°C
App
Temp
°C
Dew
Point
°C
Rel
Hum
%
Delta-T
°C
Wind Press
QNH
hPa
Press
MSL
hPa
Rain since
9am
mm
Dir  Spd
km/h
Gust
km/h
Spd
kts
Gust
kts
04/11:30pm 19.0 12.6 1.1 30 8.2 SE 24 30 13 16 1010.9 1009.1 0.0
04/11:00pm 18.3 12.7 -2.6 24 8.8 S 17 20 9 11 1010.9 1009.1 0.0
04/10:30pm 19.3 14.1 -2.9 22 9.4 SSE 15 19 8 10 1011.0 1009.2 0.0
04/10:00pm 19.9 13.3 -3.0 21 9.7 S 22 30 12 16 1011.0 1009.2 0.0
04/09:30pm 20.5 14.4 -3.9 19 10.2 SSE 19 22 10 12 1011.2 1009.5 0.0
04/09:00pm 21.1 14.7 -4.9 17 10.7 S 20 24 11 13 1011.1 1009.3 0.0
04/08:30pm 20.6 15.4 -6.1 16 10.7 S 13 17 7 9 1011.1 1009.3 0.0
04/08:00pm 20.1 15.5 -8.2 14 10.8 SW 9 13 5 7 1011.1 1009.3 0.0
04/07:30pm 22.3 16.5 -8.4 12 12.0 SSW 15 15 8 8 1011.0 1009.2 0.0
04/07:00pm 23.8 18.4 -8.4 11 12.8 SSW 13 13 7 7 1010.9 1009.1 0.0

Other Formats:

Comma delimited format used in spreadsheet applications
http://www.bom.gov.au/fwo/IDW60801/IDW60801.95634.axf

JavaScript Object Notation format (JSON) in row-major order
http://www.bom.gov.au/fwo/IDW60801/IDW60801.95634.json